createdAt,value
2024-05-09T00:04:48.685Z,20.152
2024-05-09T00:19:50.797Z,19.65
2024-05-09T00:34:52.876Z,19.856
2024-05-09T00:49:54.945Z,19.609
2024-05-09T01:04:57.134Z,22.819
2024-05-09T01:19:59.376Z,23.509
2024-05-09T01:35:01.518Z,25.383
2024-05-09T01:50:03.736Z,26.366
2024-05-09T02:05:06.170Z,27.418
2024-05-09T02:20:13.151Z,28.166
2024-05-09T02:35:18.244Z,28.603
2024-05-09T02:50:29.079Z,31.72
2024-05-09T03:05:36.682Z,32.568
2024-05-09T03:20:39.487Z,30.959
2024-05-09T03:35:41.963Z,33.517
2024-05-09T03:50:44.079Z,35.055
2024-05-09T04:05:46.246Z,35.805
2024-05-09T04:20:48.519Z,38.779
2024-05-09T04:35:50.714Z,40.11
2024-05-09T04:50:53.177Z,39.39
2024-05-09T05:05:55.850Z,41.592
2024-05-09T05:20:58.155Z,42.91
2024-05-09T05:36:00.620Z,43.133
2024-05-09T05:51:04.627Z,42.936
2024-05-09T06:06:07.080Z,47.604
2024-05-09T06:21:09.290Z,44.032
2024-05-09T06:36:11.448Z,43.486
2024-05-09T06:51:13.607Z,51.448
2024-05-09T07:06:15.815Z,51.212
2024-05-09T07:21:18.154Z,47.727
2024-05-09T07:36:20.365Z,49.647
2024-05-09T08:06:27.494Z,53.227
2024-05-09T08:21:29.635Z,52.358
2024-05-09T08:36:31.753Z,51.954
2024-05-09T08:51:33.782Z,57.557
2024-05-09T09:06:35.894Z,57.262
2024-05-09T09:21:37.930Z,55.651
2024-05-09T09:36:39.947Z,56.106
2024-05-09T09:51:41.959Z,53.039
2024-05-09T10:06:44.020Z,57.987
2024-05-09T10:21:46.057Z,61.544
2024-05-09T10:36:48.110Z,56.123
2024-05-09T10:51:50.331Z,58.185
2024-05-09T11:06:52.375Z,53.382
2024-05-09T11:21:54.460Z,54.148
2024-05-09T11:36:56.506Z,58.194
2024-05-09T11:51:58.675Z,59.498
2024-05-09T12:07:00.769Z,58.6
2024-05-09T12:22:02.841Z,55.037
2024-05-09T12:37:04.938Z,56.123
2024-05-09T12:52:07.279Z,60.188
2024-05-09T13:07:09.543Z,59.493
2024-05-09T13:22:11.876Z,60.281
2024-05-09T13:37:14.107Z,54.883
2024-05-09T13:52:16.207Z,56.269
2024-05-09T14:07:18.309Z,54.227
2024-05-09T14:22:20.388Z,54.577
2024-05-09T14:37:22.457Z,53.876
2024-05-09T14:52:24.500Z,44.563
2024-05-09T15:07:26.615Z,47.695
2024-05-09T15:22:28.622Z,46.432
2024-05-09T15:37:30.624Z,39.39
2024-05-09T15:52:32.671Z,39.03
2024-05-09T16:07:34.657Z,39.847
2024-05-09T16:22:36.640Z,37.891
2024-05-09T16:37:38.745Z,35.809
2024-05-09T16:52:40.840Z,34.726
2024-05-09T17:07:42.899Z,34.884
2024-05-09T17:22:44.886Z,32.693
2024-05-09T17:37:46.964Z,32.538
2024-05-09T17:52:49.282Z,31.415
2024-05-09T18:07:51.371Z,30.868
2024-05-09T18:22:53.478Z,29.809
2024-05-09T18:37:55.506Z,29.059
2024-05-09T18:52:58.319Z,29.4
2024-05-09T19:08:00.495Z,29.342
2024-05-09T19:23:02.620Z,30.678
2024-05-09T19:38:04.866Z,30.005
2024-05-09T19:53:06.916Z,28.203
2024-05-09T20:08:08.985Z,27.439
2024-05-09T20:23:11.269Z,25.514
2024-05-09T20:38:13.590Z,24.65
2024-05-09T20:53:15.757Z,24.695
2024-05-09T21:08:17.867Z,24.172
2024-05-09T21:23:20.025Z,21.905
2024-05-09T21:38:22.084Z,23.789
2024-05-09T21:53:24.247Z,20.878
2024-05-09T22:08:26.194Z,22.062
2024-05-09T22:23:28.331Z,21.947
2024-05-09T22:38:30.403Z,20.688
2024-05-09T22:53:32.395Z,22.121
2024-05-09T23:08:34.376Z,20.379
2024-05-09T23:23:36.378Z,20.333
2024-05-09T23:38:38.581Z,20.513
2024-05-09T23:53:40.567Z,20.236
